Terminal Aerodrome Forecast
Issued by NWS Sterling, VA

Home | Current Version | Previous Version | Text Only | Print | Product List | Glossary On
Versions: 1 2 3 4 5 6 7 8 9 10 11 12 13 14 15 16 17 18 19 20 21
000
FTUS41 KLWX 191100
TAFBWI
TAF
KBWI 191120Z 1912/2018 04006KT P6SM SCT050
     FM192300 11008KT P6SM BKN050
     FM200900 VRB03KT P6SM BKN030
     FM201100 VRB03KT P6SM SCT030
     FM201600 16007KT P6SM SCT080=

USA.gov is the U.S. government's official web portal to all federal, state and local government web resources and services.